sensor_id;sensor_type;location;lat;lon;timestamp;P1;durP1;ratioP1;P2;durP2;ratioP2
13228;SDS011;6680;53.220;10.402;2022-08-06T00:00:54;1.73;;;1.63;;
13228;SDS011;6680;53.220;10.402;2022-08-06T00:03:20;1.23;;;1.23;;
13228;SDS011;6680;53.220;10.402;2022-08-06T00:05:47;4.20;;;1.77;;
13228;SDS011;6680;53.220;10.402;2022-08-06T00:08:14;1.57;;;1.47;;
13228;SDS011;6680;53.220;10.402;2022-08-06T00:10:40;2.17;;;1.50;;
13228;SDS011;6680;53.220;10.402;2022-08-06T00:13:07;3.50;;;1.80;;
13228;SDS011;6680;53.220;10.402;2022-08-06T00:15:34;2.10;;;1.53;;
13228;SDS011;6680;53.220;10.402;2022-08-06T00:18:02;1.70;;;1.60;;
13228;SDS011;6680;53.220;10.402;2022-08-06T00:20:29;4.37;;;1.83;;
13228;SDS011;6680;53.220;10.402;2022-08-06T00:22:55;1.70;;;1.60;;
13228;SDS011;6680;53.220;10.402;2022-08-06T00:25:22;1.77;;;1.67;;
13228;SDS011;6680;53.220;10.402;2022-08-06T00:27:49;1.83;;;1.73;;
13228;SDS011;6680;53.220;10.402;2022-08-06T00:30:16;4.10;;;1.60;;
13228;SDS011;6680;53.220;10.402;2022-08-06T00:32:42;1.73;;;1.57;;
13228;SDS011;6680;53.220;10.402;2022-08-06T00:35:10;1.60;;;1.50;;
13228;SDS011;6680;53.220;10.402;2022-08-06T00:37:37;1.30;;;1.30;;
13228;SDS011;6680;53.220;10.402;2022-08-06T00:40:04;2.57;;;1.47;;
13228;SDS011;6680;53.220;10.402;2022-08-06T00:42:32;2.13;;;1.90;;
13228;SDS011;6680;53.220;10.402;2022-08-06T00:44:59;2.10;;;1.90;;
13228;SDS011;6680;53.220;10.402;2022-08-06T00:47:26;1.90;;;1.70;;
13228;SDS011;6680;53.220;10.402;2022-08-06T00:49:52;1.57;;;1.47;;
13228;SDS011;6680;53.220;10.402;2022-08-06T00:52:20;1.50;;;1.40;;
13228;SDS011;6680;53.220;10.402;2022-08-06T00:54:47;1.60;;;1.50;;
13228;SDS011;6680;53.220;10.402;2022-08-06T00:57:13;1.87;;;1.60;;
13228;SDS011;6680;53.220;10.402;2022-08-06T00:59:40;6.43;;;1.70;;
13228;SDS011;6680;53.220;10.402;2022-08-06T01:02:07;1.90;;;1.80;;
13228;SDS011;6680;53.220;10.402;2022-08-06T01:04:33;1.60;;;1.50;;
13228;SDS011;6680;53.220;10.402;2022-08-06T01:07:00;1.90;;;1.67;;
13228;SDS011;6680;53.220;10.402;2022-08-06T01:09:28;1.70;;;1.60;;
13228;SDS011;6680;53.220;10.402;2022-08-06T01:11:55;2.43;;;1.80;;
13228;SDS011;6680;53.220;10.402;2022-08-06T01:14:21;1.90;;;1.80;;
13228;SDS011;6680;53.220;10.402;2022-08-06T01:16:49;3.83;;;2.03;;
13228;SDS011;6680;53.220;10.402;2022-08-06T01:19:30;2.07;;;1.97;;
13228;SDS011;6680;53.220;10.402;2022-08-06T01:22:21;1.63;;;1.53;;
13228;SDS011;6680;53.220;10.402;2022-08-06T01:25:09;1.70;;;1.60;;
13228;SDS011;6680;53.220;10.402;2022-08-06T01:27:46;1.80;;;1.70;;
13228;SDS011;6680;53.220;10.402;2022-08-06T01:30:19;1.93;;;1.60;;
13228;SDS011;6680;53.220;10.402;2022-08-06T01:32:50;2.20;;;1.70;;
13228;SDS011;6680;53.220;10.402;2022-08-06T01:35:23;1.47;;;1.37;;
13228;SDS011;6680;53.220;10.402;2022-08-06T01:37:57;1.97;;;1.60;;
13228;SDS011;6680;53.220;10.402;2022-08-06T01:40:27;3.07;;;1.47;;
13228;SDS011;6680;53.220;10.402;2022-08-06T01:42:57;1.80;;;1.70;;
13228;SDS011;6680;53.220;10.402;2022-08-06T01:45:27;4.97;;;1.83;;
13228;SDS011;6680;53.220;10.402;2022-08-06T01:47:58;3.37;;;1.97;;
13228;SDS011;6680;53.220;10.402;2022-08-06T01:50:28;1.80;;;1.63;;
13228;SDS011;6680;53.220;10.402;2022-08-06T01:52:57;2.30;;;1.90;;
13228;SDS011;6680;53.220;10.402;2022-08-06T01:55:26;2.30;;;1.93;;
13228;SDS011;6680;53.220;10.402;2022-08-06T01:57:55;2.03;;;1.93;;
13228;SDS011;6680;53.220;10.402;2022-08-06T02:00:27;1.90;;;1.80;;
13228;SDS011;6680;53.220;10.402;2022-08-06T02:02:55;1.77;;;1.67;;
13228;SDS011;6680;53.220;10.402;2022-08-06T02:05:24;2.03;;;1.67;;
13228;SDS011;6680;53.220;10.402;2022-08-06T02:07:52;3.07;;;1.80;;
13228;SDS011;6680;53.220;10.402;2022-08-06T02:10:22;1.50;;;1.40;;
13228;SDS011;6680;53.220;10.402;2022-08-06T02:12:52;1.70;;;1.60;;
13228;SDS011;6680;53.220;10.402;2022-08-06T02:15:20;1.90;;;1.80;;
13228;SDS011;6680;53.220;10.402;2022-08-06T02:17:52;2.23;;;1.80;;
13228;SDS011;6680;53.220;10.402;2022-08-06T02:20:24;1.87;;;1.60;;
13228;SDS011;6680;53.220;10.402;2022-08-06T02:22:53;1.67;;;1.57;;
13228;SDS011;6680;53.220;10.402;2022-08-06T02:25:22;1.77;;;1.67;;
13228;SDS011;6680;53.220;10.402;2022-08-06T02:27:50;1.60;;;1.50;;
13228;SDS011;6680;53.220;10.402;2022-08-06T02:30:20;1.90;;;1.80;;
13228;SDS011;6680;53.220;10.402;2022-08-06T02:32:49;2.00;;;1.90;;
13228;SDS011;6680;53.220;10.402;2022-08-06T02:35:15;1.50;;;1.40;;
13228;SDS011;6680;53.220;10.402;2022-08-06T02:37:43;2.90;;;1.77;;
13228;SDS011;6680;53.220;10.402;2022-08-06T02:40:15;1.73;;;1.57;;
13228;SDS011;6680;53.220;10.402;2022-08-06T02:42:47;1.93;;;1.83;;
13228;SDS011;6680;53.220;10.402;2022-08-06T02:45:19;7.13;;;1.90;;
13228;SDS011;6680;53.220;10.402;2022-08-06T02:47:57;1.57;;;1.47;;
13228;SDS011;6680;53.220;10.402;2022-08-06T02:50:32;1.80;;;1.70;;
13228;SDS011;6680;53.220;10.402;2022-08-06T02:53:01;1.97;;;1.77;;
13228;SDS011;6680;53.220;10.402;2022-08-06T02:55:31;3.77;;;1.90;;
13228;SDS011;6680;53.220;10.402;2022-08-06T02:58:04;3.87;;;1.70;;
13228;SDS011;6680;53.220;10.402;2022-08-06T03:00:38;2.00;;;1.90;;
13228;SDS011;6680;53.220;10.402;2022-08-06T03:03:07;2.03;;;1.93;;
13228;SDS011;6680;53.220;10.402;2022-08-06T03:05:35;2.37;;;1.53;;
13228;SDS011;6680;53.220;10.402;2022-08-06T03:08:03;1.80;;;1.70;;
13228;SDS011;6680;53.220;10.402;2022-08-06T03:10:32;1.97;;;1.87;;
13228;SDS011;6680;53.220;10.402;2022-08-06T03:13:00;2.13;;;1.50;;
13228;SDS011;6680;53.220;10.402;2022-08-06T03:15:29;3.07;;;2.30;;
13228;SDS011;6680;53.220;10.402;2022-08-06T03:17:59;1.77;;;1.67;;
13228;SDS011;6680;53.220;10.402;2022-08-06T03:20:27;2.13;;;1.93;;
13228;SDS011;6680;53.220;10.402;2022-08-06T03:22:56;1.97;;;1.87;;
13228;SDS011;6680;53.220;10.402;2022-08-06T03:25:26;1.90;;;1.80;;
13228;SDS011;6680;53.220;10.402;2022-08-06T03:27:55;1.67;;;1.57;;
13228;SDS011;6680;53.220;10.402;2022-08-06T03:30:22;1.73;;;1.63;;
13228;SDS011;6680;53.220;10.402;2022-08-06T03:32:49;1.93;;;1.70;;
13228;SDS011;6680;53.220;10.402;2022-08-06T03:35:19;3.47;;;1.90;;
13228;SDS011;6680;53.220;10.402;2022-08-06T03:37:46;2.60;;;1.73;;
13228;SDS011;6680;53.220;10.402;2022-08-06T03:40:15;1.70;;;1.60;;
13228;SDS011;6680;53.220;10.402;2022-08-06T03:42:44;1.80;;;1.70;;
13228;SDS011;6680;53.220;10.402;2022-08-06T03:45:11;2.03;;;1.93;;
13228;SDS011;6680;53.220;10.402;2022-08-06T03:47:39;2.10;;;1.90;;
13228;SDS011;6680;53.220;10.402;2022-08-06T03:50:09;2.10;;;1.77;;
13228;SDS011;6680;53.220;10.402;2022-08-06T03:52:40;2.00;;;1.57;;
13228;SDS011;6680;53.220;10.402;2022-08-06T03:55:12;2.00;;;1.80;;
13228;SDS011;6680;53.220;10.402;2022-08-06T03:57:41;2.10;;;1.87;;
13228;SDS011;6680;53.220;10.402;2022-08-06T04:00:13;2.60;;;1.90;;
13228;SDS011;6680;53.220;10.402;2022-08-06T04:02:42;2.10;;;1.90;;
13228;SDS011;6680;53.220;10.402;2022-08-06T04:05:13;2.10;;;1.90;;
13228;SDS011;6680;53.220;10.402;2022-08-06T04:07:44;1.93;;;1.83;;
13228;SDS011;6680;53.220;10.402;2022-08-06T04:10:12;1.90;;;1.80;;
13228;SDS011;6680;53.220;10.402;2022-08-06T04:12:39;1.90;;;1.80;;
13228;SDS011;6680;53.220;10.402;2022-08-06T04:15:08;1.77;;;1.67;;
13228;SDS011;6680;53.220;10.402;2022-08-06T04:17:36;1.73;;;1.63;;
13228;SDS011;6680;53.220;10.402;2022-08-06T04:20:07;1.97;;;1.80;;
13228;SDS011;6680;53.220;10.402;2022-08-06T04:22:34;1.40;;;1.30;;
13228;SDS011;6680;53.220;10.402;2022-08-06T04:25:03;1.60;;;1.50;;
13228;SDS011;6680;53.220;10.402;2022-08-06T04:27:31;1.83;;;1.73;;
13228;SDS011;6680;53.220;10.402;2022-08-06T04:30:00;1.70;;;1.60;;
13228;SDS011;6680;53.220;10.402;2022-08-06T04:32:27;2.27;;;2.07;;
13228;SDS011;6680;53.220;10.402;2022-08-06T04:34:56;2.17;;;1.97;;
13228;SDS011;6680;53.220;10.402;2022-08-06T04:37:23;2.03;;;1.90;;
13228;SDS011;6680;53.220;10.402;2022-08-06T04:39:50;2.17;;;1.80;;
13228;SDS011;6680;53.220;10.402;2022-08-06T04:42:19;1.60;;;1.50;;
13228;SDS011;6680;53.220;10.402;2022-08-06T04:44:46;2.73;;;1.83;;
13228;SDS011;6680;53.220;10.402;2022-08-06T04:47:13;1.47;;;1.37;;
13228;SDS011;6680;53.220;10.402;2022-08-06T04:49:41;2.17;;;1.87;;
13228;SDS011;6680;53.220;10.402;2022-08-06T04:52:08;1.80;;;1.70;;
13228;SDS011;6680;53.220;10.402;2022-08-06T04:54:35;2.30;;;2.10;;
13228;SDS011;6680;53.220;10.402;2022-08-06T04:57:01;4.30;;;1.93;;
13228;SDS011;6680;53.220;10.402;2022-08-06T04:59:30;1.90;;;1.80;;
13228;SDS011;6680;53.220;10.402;2022-08-06T05:01:56;1.90;;;1.67;;
13228;SDS011;6680;53.220;10.402;2022-08-06T05:04:23;2.83;;;1.60;;
13228;SDS011;6680;53.220;10.402;2022-08-06T05:06:52;1.70;;;1.60;;
13228;SDS011;6680;53.220;10.402;2022-08-06T05:09:24;2.33;;;1.60;;
13228;SDS011;6680;53.220;10.402;2022-08-06T05:11:53;2.10;;;1.90;;
13228;SDS011;6680;53.220;10.402;2022-08-06T05:14:27;1.60;;;1.50;;
13228;SDS011;6680;53.220;10.402;2022-08-06T05:17:02;1.70;;;1.60;;
13228;SDS011;6680;53.220;10.402;2022-08-06T05:19:31;1.60;;;1.50;;
13228;SDS011;6680;53.220;10.402;2022-08-06T05:22:01;1.43;;;1.37;;
13228;SDS011;6680;53.220;10.402;2022-08-06T05:24:30;1.80;;;1.70;;
13228;SDS011;6680;53.220;10.402;2022-08-06T05:26:58;2.20;;;1.97;;
13228;SDS011;6680;53.220;10.402;2022-08-06T05:29:25;2.40;;;2.20;;
13228;SDS011;6680;53.220;10.402;2022-08-06T05:31:58;1.97;;;1.87;;
13228;SDS011;6680;53.220;10.402;2022-08-06T05:34:27;1.63;;;1.53;;
13228;SDS011;6680;53.220;10.402;2022-08-06T05:36:53;2.50;;;1.93;;
13228;SDS011;6680;53.220;10.402;2022-08-06T05:39:20;2.03;;;1.93;;
13228;SDS011;6680;53.220;10.402;2022-08-06T05:41:48;1.93;;;1.70;;
13228;SDS011;6680;53.220;10.402;2022-08-06T05:44:15;1.43;;;1.33;;
13228;SDS011;6680;53.220;10.402;2022-08-06T05:46:44;1.63;;;1.53;;
13228;SDS011;6680;53.220;10.402;2022-08-06T05:49:31;1.27;;;1.23;;
13228;SDS011;6680;53.220;10.402;2022-08-06T05:52:04;3.80;;;1.73;;
13228;SDS011;6680;53.220;10.402;2022-08-06T05:54:38;1.47;;;1.40;;
13228;SDS011;6680;53.220;10.402;2022-08-06T05:57:09;2.77;;;1.77;;
13228;SDS011;6680;53.220;10.402;2022-08-06T05:59:41;1.40;;;1.30;;
13228;SDS011;6680;53.220;10.402;2022-08-06T06:02:14;1.17;;;1.17;;
13228;SDS011;6680;53.220;10.402;2022-08-06T06:04:44;1.77;;;1.57;;
13228;SDS011;6680;53.220;10.402;2022-08-06T06:07:13;6.83;;;1.50;;
13228;SDS011;6680;53.220;10.402;2022-08-06T06:09:40;1.67;;;1.40;;
13228;SDS011;6680;53.220;10.402;2022-08-06T06:12:08;1.00;;;1.00;;
13228;SDS011;6680;53.220;10.402;2022-08-06T06:14:36;1.80;;;1.30;;
13228;SDS011;6680;53.220;10.402;2022-08-06T06:20:05;2.23;;;1.30;;
13228;SDS011;6680;53.220;10.402;2022-08-06T06:22:39;1.43;;;1.30;;
13228;SDS011;6680;53.220;10.402;2022-08-06T06:25:12;1.50;;;1.40;;
13228;SDS011;6680;53.220;10.402;2022-08-06T06:27:46;1.70;;;1.23;;
13228;SDS011;6680;53.220;10.402;2022-08-06T06:30:16;1.70;;;1.60;;
13228;SDS011;6680;53.220;10.402;2022-08-06T06:32:49;1.70;;;1.60;;
13228;SDS011;6680;53.220;10.402;2022-08-06T06:35:31;1.47;;;1.37;;
13228;SDS011;6680;53.220;10.402;2022-08-06T06:38:11;2.77;;;1.47;;
13228;SDS011;6680;53.220;10.402;2022-08-06T06:40:47;2.07;;;1.50;;
13228;SDS011;6680;53.220;10.402;2022-08-06T06:43:20;1.53;;;1.47;;
13228;SDS011;6680;53.220;10.402;2022-08-06T06:45:53;2.43;;;1.30;;
13228;SDS011;6680;53.220;10.402;2022-08-06T06:48:23;1.67;;;1.57;;
13228;SDS011;6680;53.220;10.402;2022-08-06T06:50:57;1.50;;;1.40;;
13228;SDS011;6680;53.220;10.402;2022-08-06T06:53:28;1.30;;;1.20;;
13228;SDS011;6680;53.220;10.402;2022-08-06T06:56:00;1.50;;;1.40;;
13228;SDS011;6680;53.220;10.402;2022-08-06T06:58:30;2.67;;;1.60;;
13228;SDS011;6680;53.220;10.402;2022-08-06T07:01:00;1.37;;;1.17;;
13228;SDS011;6680;53.220;10.402;2022-08-06T07:03:30;1.30;;;1.20;;
13228;SDS011;6680;53.220;10.402;2022-08-06T07:06:00;1.10;;;1.10;;
13228;SDS011;6680;53.220;10.402;2022-08-06T07:08:30;2.40;;;1.20;;
13228;SDS011;6680;53.220;10.402;2022-08-06T07:10:59;1.37;;;1.37;;
13228;SDS011;6680;53.220;10.402;2022-08-06T07:13:28;1.30;;;1.30;;
13228;SDS011;6680;53.220;10.402;2022-08-06T07:15:56;1.50;;;1.40;;
13228;SDS011;6680;53.220;10.402;2022-08-06T07:18:23;1.47;;;1.43;;
13228;SDS011;6680;53.220;10.402;2022-08-06T07:20:51;2.63;;;1.23;;
13228;SDS011;6680;53.220;10.402;2022-08-06T07:23:22;2.77;;;1.57;;
13228;SDS011;6680;53.220;10.402;2022-08-06T07:25:49;2.33;;;1.93;;
13228;SDS011;6680;53.220;10.402;2022-08-06T07:28:16;2.17;;;1.57;;
13228;SDS011;6680;53.220;10.402;2022-08-06T07:30:42;1.10;;;1.10;;
13228;SDS011;6680;53.220;10.402;2022-08-06T07:33:10;1.40;;;1.27;;
13228;SDS011;6680;53.220;10.402;2022-08-06T07:35:39;1.37;;;1.27;;
13228;SDS011;6680;53.220;10.402;2022-08-06T07:38:08;1.47;;;1.47;;
13228;SDS011;6680;53.220;10.402;2022-08-06T07:40:39;1.73;;;1.33;;
13228;SDS011;6680;53.220;10.402;2022-08-06T07:43:10;1.60;;;1.50;;
13228;SDS011;6680;53.220;10.402;2022-08-06T07:45:39;1.67;;;1.57;;
13228;SDS011;6680;53.220;10.402;2022-08-06T07:48:07;2.23;;;1.50;;
13228;SDS011;6680;53.220;10.402;2022-08-06T07:50:37;1.30;;;1.20;;
13228;SDS011;6680;53.220;10.402;2022-08-06T07:53:05;1.33;;;1.30;;
13228;SDS011;6680;53.220;10.402;2022-08-06T07:55:33;1.40;;;1.40;;
13228;SDS011;6680;53.220;10.402;2022-08-06T07:58:03;2.00;;;1.20;;
13228;SDS011;6680;53.220;10.402;2022-08-06T08:00:31;1.80;;;1.63;;
13228;SDS011;6680;53.220;10.402;2022-08-06T08:02:58;1.40;;;1.30;;
13228;SDS011;6680;53.220;10.402;2022-08-06T08:05:44;1.30;;;1.20;;
13228;SDS011;6680;53.220;10.402;2022-08-06T08:08:30;2.00;;;1.47;;
13228;SDS011;6680;53.220;10.402;2022-08-06T08:10:57;1.20;;;1.20;;
13228;SDS011;6680;53.220;10.402;2022-08-06T08:13:25;1.43;;;1.17;;
13228;SDS011;6680;53.220;10.402;2022-08-06T08:15:53;1.47;;;1.33;;
13228;SDS011;6680;53.220;10.402;2022-08-06T08:18:27;1.10;;;1.10;;
13228;SDS011;6680;53.220;10.402;2022-08-06T08:20:54;3.03;;;1.53;;
13228;SDS011;6680;53.220;10.402;2022-08-06T08:23:22;1.47;;;1.37;;
13228;SDS011;6680;53.220;10.402;2022-08-06T08:25:50;3.73;;;1.50;;
13228;SDS011;6680;53.220;10.402;2022-08-06T08:28:17;1.40;;;1.30;;
13228;SDS011;6680;53.220;10.402;2022-08-06T08:30:45;2.30;;;1.70;;
13228;SDS011;6680;53.220;10.402;2022-08-06T08:33:12;2.20;;;1.47;;
13228;SDS011;6680;53.220;10.402;2022-08-06T08:35:40;1.57;;;1.23;;
13228;SDS011;6680;53.220;10.402;2022-08-06T08:38:06;2.47;;;1.23;;
13228;SDS011;6680;53.220;10.402;2022-08-06T08:40:33;1.60;;;1.50;;
13228;SDS011;6680;53.220;10.402;2022-08-06T08:43:01;1.60;;;1.50;;
13228;SDS011;6680;53.220;10.402;2022-08-06T08:45:30;1.20;;;1.20;;
13228;SDS011;6680;53.220;10.402;2022-08-06T08:47:59;2.03;;;1.33;;
13228;SDS011;6680;53.220;10.402;2022-08-06T08:50:29;1.80;;;1.50;;
13228;SDS011;6680;53.220;10.402;2022-08-06T08:52:57;1.50;;;1.40;;
13228;SDS011;6680;53.220;10.402;2022-08-06T08:55:28;1.57;;;1.27;;
13228;SDS011;6680;53.220;10.402;2022-08-06T08:57:55;1.13;;;1.13;;
13228;SDS011;6680;53.220;10.402;2022-08-06T09:00:22;1.20;;;1.20;;
13228;SDS011;6680;53.220;10.402;2022-08-06T09:02:49;1.53;;;1.43;;
13228;SDS011;6680;53.220;10.402;2022-08-06T09:05:18;1.20;;;1.20;;
13228;SDS011;6680;53.220;10.402;2022-08-06T09:07:45;2.03;;;1.33;;
13228;SDS011;6680;53.220;10.402;2022-08-06T09:10:12;1.33;;;1.20;;
13228;SDS011;6680;53.220;10.402;2022-08-06T09:12:39;1.30;;;1.30;;
13228;SDS011;6680;53.220;10.402;2022-08-06T09:15:06;1.07;;;0.93;;
13228;SDS011;6680;53.220;10.402;2022-08-06T09:17:34;1.27;;;1.20;;
13228;SDS011;6680;53.220;10.402;2022-08-06T09:20:02;1.80;;;1.20;;
13228;SDS011;6680;53.220;10.402;2022-08-06T09:22:31;1.67;;;1.57;;
13228;SDS011;6680;53.220;10.402;2022-08-06T09:24:57;1.57;;;1.47;;
13228;SDS011;6680;53.220;10.402;2022-08-06T09:27:28;1.23;;;1.17;;
13228;SDS011;6680;53.220;10.402;2022-08-06T09:30:00;1.40;;;1.30;;
13228;SDS011;6680;53.220;10.402;2022-08-06T09:32:37;1.57;;;1.40;;
13228;SDS011;6680;53.220;10.402;2022-08-06T09:35:15;1.03;;;1.03;;
13228;SDS011;6680;53.220;10.402;2022-08-06T09:37:46;1.30;;;1.20;;
13228;SDS011;6680;53.220;10.402;2022-08-06T09:40:13;1.47;;;1.37;;
13228;SDS011;6680;53.220;10.402;2022-08-06T09:42:43;1.20;;;1.20;;
13228;SDS011;6680;53.220;10.402;2022-08-06T09:45:12;1.70;;;1.40;;
13228;SDS011;6680;53.220;10.402;2022-08-06T09:47:40;1.53;;;1.47;;
13228;SDS011;6680;53.220;10.402;2022-08-06T09:50:07;1.10;;;1.10;;
13228;SDS011;6680;53.220;10.402;2022-08-06T09:52:34;1.60;;;1.50;;
13228;SDS011;6680;53.220;10.402;2022-08-06T09:55:03;1.20;;;1.20;;
13228;SDS011;6680;53.220;10.402;2022-08-06T09:57:41;1.70;;;1.60;;
13228;SDS011;6680;53.220;10.402;2022-08-06T10:00:09;1.10;;;1.10;;
13228;SDS011;6680;53.220;10.402;2022-08-06T10:02:37;2.30;;;1.50;;
13228;SDS011;6680;53.220;10.402;2022-08-06T10:05:07;1.50;;;1.17;;
13228;SDS011;6680;53.220;10.402;2022-08-06T10:07:35;1.33;;;1.30;;
13228;SDS011;6680;53.220;10.402;2022-08-06T10:10:03;1.20;;;1.20;;
13228;SDS011;6680;53.220;10.402;2022-08-06T10:12:31;1.20;;;1.20;;
13228;SDS011;6680;53.220;10.402;2022-08-06T10:14:59;1.70;;;1.10;;
13228;SDS011;6680;53.220;10.402;2022-08-06T10:17:25;1.20;;;1.20;;
13228;SDS011;6680;53.220;10.402;2022-08-06T10:20:04;1.40;;;1.30;;
13228;SDS011;6680;53.220;10.402;2022-08-06T10:22:33;1.27;;;1.23;;
13228;SDS011;6680;53.220;10.402;2022-08-06T10:25:03;1.47;;;1.33;;
13228;SDS011;6680;53.220;10.402;2022-08-06T10:27:31;1.53;;;1.53;;
13228;SDS011;6680;53.220;10.402;2022-08-06T10:30:01;0.90;;;0.90;;
13228;SDS011;6680;53.220;10.402;2022-08-06T10:32:31;1.00;;;1.00;;
13228;SDS011;6680;53.220;10.402;2022-08-06T10:35:02;1.27;;;1.13;;
13228;SDS011;6680;53.220;10.402;2022-08-06T10:37:31;1.27;;;1.17;;
13228;SDS011;6680;53.220;10.402;2022-08-06T10:39:59;1.30;;;1.20;;
13228;SDS011;6680;53.220;10.402;2022-08-06T10:42:28;0.77;;;0.77;;
13228;SDS011;6680;53.220;10.402;2022-08-06T10:44:56;1.30;;;1.17;;
13228;SDS011;6680;53.220;10.402;2022-08-06T10:47:24;1.03;;;1.03;;
13228;SDS011;6680;53.220;10.402;2022-08-06T10:49:53;1.17;;;1.17;;
13228;SDS011;6680;53.220;10.402;2022-08-06T10:52:20;1.30;;;1.17;;
13228;SDS011;6680;53.220;10.402;2022-08-06T10:54:48;1.13;;;1.13;;
13228;SDS011;6680;53.220;10.402;2022-08-06T10:57:16;1.10;;;1.10;;
13228;SDS011;6680;53.220;10.402;2022-08-06T10:59:44;1.33;;;1.33;;
13228;SDS011;6680;53.220;10.402;2022-08-06T11:02:16;1.33;;;1.30;;
13228;SDS011;6680;53.220;10.402;2022-08-06T11:04:52;1.20;;;1.10;;
13228;SDS011;6680;53.220;10.402;2022-08-06T11:07:35;1.30;;;1.20;;
13228;SDS011;6680;53.220;10.402;2022-08-06T11:10:26;1.40;;;1.30;;
13228;SDS011;6680;53.220;10.402;2022-08-06T11:13:05;1.10;;;1.10;;
13228;SDS011;6680;53.220;10.402;2022-08-06T11:15:40;1.50;;;1.40;;
13228;SDS011;6680;53.220;10.402;2022-08-06T11:18:08;1.43;;;1.33;;
13228;SDS011;6680;53.220;10.402;2022-08-06T11:20:36;1.13;;;0.80;;
13228;SDS011;6680;53.220;10.402;2022-08-06T11:25:51;1.20;;;1.20;;
13228;SDS011;6680;53.220;10.402;2022-08-06T11:28:20;2.70;;;1.70;;
13228;SDS011;6680;53.220;10.402;2022-08-06T11:31:08;1.33;;;1.33;;
13228;SDS011;6680;53.220;10.402;2022-08-06T11:33:59;1.83;;;1.73;;
13228;SDS011;6680;53.220;10.402;2022-08-06T11:36:27;1.50;;;1.40;;
13228;SDS011;6680;53.220;10.402;2022-08-06T11:39:09;1.00;;;1.00;;
13228;SDS011;6680;53.220;10.402;2022-08-06T11:41:42;2.47;;;1.40;;
13228;SDS011;6680;53.220;10.402;2022-08-06T11:44:11;1.90;;;1.40;;
13228;SDS011;6680;53.220;10.402;2022-08-06T11:46:42;2.53;;;1.40;;
13228;SDS011;6680;53.220;10.402;2022-08-06T11:49:20;1.40;;;1.30;;
13228;SDS011;6680;53.220;10.402;2022-08-06T11:51:52;1.43;;;1.33;;
13228;SDS011;6680;53.220;10.402;2022-08-06T11:54:22;1.40;;;1.40;;
13228;SDS011;6680;53.220;10.402;2022-08-06T11:59:45;1.20;;;1.20;;
13228;SDS011;6680;53.220;10.402;2022-08-06T12:02:47;1.50;;;1.40;;
13228;SDS011;6680;53.220;10.402;2022-08-06T12:05:33;1.30;;;1.20;;
13228;SDS011;6680;53.220;10.402;2022-08-06T12:08:15;1.47;;;1.37;;
13228;SDS011;6680;53.220;10.402;2022-08-06T12:13:53;2.10;;;1.83;;
13228;SDS011;6680;53.220;10.402;2022-08-06T12:16:27;1.70;;;1.60;;
13228;SDS011;6680;53.220;10.402;2022-08-06T12:18:57;1.30;;;1.13;;
13228;SDS011;6680;53.220;10.402;2022-08-06T12:21:24;2.00;;;1.30;;
13228;SDS011;6680;53.220;10.402;2022-08-06T12:23:51;1.97;;;1.60;;
13228;SDS011;6680;53.220;10.402;2022-08-06T12:26:19;1.23;;;1.20;;
13228;SDS011;6680;53.220;10.402;2022-08-06T12:28:46;2.60;;;1.20;;
13228;SDS011;6680;53.220;10.402;2022-08-06T12:31:26;1.73;;;1.50;;
13228;SDS011;6680;53.220;10.402;2022-08-06T12:33:54;1.27;;;1.20;;
13228;SDS011;6680;53.220;10.402;2022-08-06T12:36:26;1.27;;;1.17;;
13228;SDS011;6680;53.220;10.402;2022-08-06T12:38:54;1.37;;;1.27;;
13228;SDS011;6680;53.220;10.402;2022-08-06T12:41:22;2.07;;;1.40;;
13228;SDS011;6680;53.220;10.402;2022-08-06T12:43:49;4.80;;;1.40;;
13228;SDS011;6680;53.220;10.402;2022-08-06T12:46:16;1.60;;;1.50;;
13228;SDS011;6680;53.220;10.402;2022-08-06T12:48:45;1.40;;;1.40;;
13228;SDS011;6680;53.220;10.402;2022-08-06T12:51:14;2.03;;;1.53;;
13228;SDS011;6680;53.220;10.402;2022-08-06T12:53:48;1.87;;;1.77;;
13228;SDS011;6680;53.220;10.402;2022-08-06T12:56:16;1.63;;;1.40;;
13228;SDS011;6680;53.220;10.402;2022-08-06T12:58:44;1.67;;;1.57;;
13228;SDS011;6680;53.220;10.402;2022-08-06T13:01:12;1.73;;;1.63;;
13228;SDS011;6680;53.220;10.402;2022-08-06T13:03:45;1.60;;;1.40;;
13228;SDS011;6680;53.220;10.402;2022-08-06T13:06:19;2.00;;;1.90;;
13228;SDS011;6680;53.220;10.402;2022-08-06T13:08:50;1.50;;;1.40;;
13228;SDS011;6680;53.220;10.402;2022-08-06T13:11:18;4.23;;;1.33;;
13228;SDS011;6680;53.220;10.402;2022-08-06T13:13:46;1.13;;;1.13;;
13228;SDS011;6680;53.220;10.402;2022-08-06T13:16:13;1.00;;;1.00;;
13228;SDS011;6680;53.220;10.402;2022-08-06T13:18:41;2.00;;;1.40;;
13228;SDS011;6680;53.220;10.402;2022-08-06T13:21:19;1.50;;;1.40;;
13228;SDS011;6680;53.220;10.402;2022-08-06T13:23:47;1.43;;;1.43;;
13228;SDS011;6680;53.220;10.402;2022-08-06T13:26:18;1.60;;;1.50;;
13228;SDS011;6680;53.220;10.402;2022-08-06T13:29:05;2.30;;;1.90;;
13228;SDS011;6680;53.220;10.402;2022-08-06T13:31:34;1.80;;;1.70;;
13228;SDS011;6680;53.220;10.402;2022-08-06T13:34:02;1.47;;;1.37;;
13228;SDS011;6680;53.220;10.402;2022-08-06T13:36:30;1.67;;;1.57;;
13228;SDS011;6680;53.220;10.402;2022-08-06T13:39:01;2.77;;;1.70;;
13228;SDS011;6680;53.220;10.402;2022-08-06T13:41:44;1.30;;;1.30;;
13228;SDS011;6680;53.220;10.402;2022-08-06T13:44:25;1.57;;;1.47;;
13228;SDS011;6680;53.220;10.402;2022-08-06T13:46:53;1.70;;;1.50;;
13228;SDS011;6680;53.220;10.402;2022-08-06T13:49:19;1.80;;;1.70;;
13228;SDS011;6680;53.220;10.402;2022-08-06T13:51:46;2.67;;;1.70;;
13228;SDS011;6680;53.220;10.402;2022-08-06T13:54:12;1.97;;;1.87;;
13228;SDS011;6680;53.220;10.402;2022-08-06T13:56:39;2.23;;;2.03;;
13228;SDS011;6680;53.220;10.402;2022-08-06T13:59:07;3.03;;;2.03;;
13228;SDS011;6680;53.220;10.402;2022-08-06T14:01:34;4.07;;;1.87;;
13228;SDS011;6680;53.220;10.402;2022-08-06T14:04:01;3.40;;;2.10;;
13228;SDS011;6680;53.220;10.402;2022-08-06T14:06:28;1.83;;;1.73;;
13228;SDS011;6680;53.220;10.402;2022-08-06T14:08:55;2.10;;;1.90;;
13228;SDS011;6680;53.220;10.402;2022-08-06T14:11:22;2.77;;;2.27;;
13228;SDS011;6680;53.220;10.402;2022-08-06T14:13:48;3.87;;;2.10;;
13228;SDS011;6680;53.220;10.402;2022-08-06T14:16:16;2.03;;;1.83;;
13228;SDS011;6680;53.220;10.402;2022-08-06T14:18:43;2.50;;;1.87;;
13228;SDS011;6680;53.220;10.402;2022-08-06T14:21:09;1.80;;;1.70;;
13228;SDS011;6680;53.220;10.402;2022-08-06T14:23:36;2.93;;;1.90;;
13228;SDS011;6680;53.220;10.402;2022-08-06T14:26:04;1.70;;;1.60;;
13228;SDS011;6680;53.220;10.402;2022-08-06T14:28:32;1.90;;;1.73;;
13228;SDS011;6680;53.220;10.402;2022-08-06T14:30:59;2.47;;;2.07;;
13228;SDS011;6680;53.220;10.402;2022-08-06T14:33:27;5.93;;;1.70;;
13228;SDS011;6680;53.220;10.402;2022-08-06T14:35:53;4.17;;;1.97;;
13228;SDS011;6680;53.220;10.402;2022-08-06T14:38:20;1.77;;;1.67;;
13228;SDS011;6680;53.220;10.402;2022-08-06T14:40:47;2.37;;;2.17;;
13228;SDS011;6680;53.220;10.402;2022-08-06T14:43:31;2.37;;;2.13;;
13228;SDS011;6680;53.220;10.402;2022-08-06T14:46:15;2.60;;;2.30;;
13228;SDS011;6680;53.220;10.402;2022-08-06T14:48:43;2.40;;;2.20;;
13228;SDS011;6680;53.220;10.402;2022-08-06T14:51:10;3.10;;;2.40;;
13228;SDS011;6680;53.220;10.402;2022-08-06T14:53:37;3.13;;;2.30;;
13228;SDS011;6680;53.220;10.402;2022-08-06T14:56:04;2.50;;;2.30;;
13228;SDS011;6680;53.220;10.402;2022-08-06T14:58:31;2.93;;;2.20;;
13228;SDS011;6680;53.220;10.402;2022-08-06T15:00:57;3.17;;;2.40;;
13228;SDS011;6680;53.220;10.402;2022-08-06T15:03:24;3.07;;;2.67;;
13228;SDS011;6680;53.220;10.402;2022-08-06T15:05:53;2.70;;;2.50;;
13228;SDS011;6680;53.220;10.402;2022-08-06T15:08:20;3.83;;;2.63;;
13228;SDS011;6680;53.220;10.402;2022-08-06T15:10:47;2.50;;;2.27;;
13228;SDS011;6680;53.220;10.402;2022-08-06T15:13:14;3.73;;;3.03;;
13228;SDS011;6680;53.220;10.402;2022-08-06T15:15:40;3.33;;;2.87;;